Time;durP1;ratioP1;P1;durP2;ratioP2;P2;SDS_P1;SDS_P2;PMS_P1;PMS_P2;Temp;Humidity;BMP_temperature;BMP_pressure;BME280_temperature;BME280_humidity;BME280_pressure;Samples;Min_cycle;Max_cycle;Signal;HPM_P1;HPM_P2
2021/10/25 00:01:09;;;;;;;8.10;4.60;;;11.20;99.90;;;;;;6130106;23;20181;-83
2021/10/25 00:03:35;;;;;;;7.80;4.33;;;11.20;99.90;;;;;;6130065;23;20153;-83
2021/10/25 00:06:01;;;;;;;9.60;5.10;;;11.20;99.90;;;;;;6129928;23;20156;-83
2021/10/25 00:08:28;;;;;;;9.80;4.83;;;11.30;99.90;;;;;;6131759;23;20224;-83
2021/10/25 00:10:53;;;;;;;7.20;4.80;;;11.40;99.90;;;;;;6131251;23;20157;-83
2021/10/25 00:13:19;;;;;;;6.73;4.80;;;11.30;99.90;;;;;;6131864;23;20196;-84
2021/10/25 00:15:44;;;;;;;10.20;6.40;;;11.40;99.90;;;;;;6131905;23;20180;-84
2021/10/25 00:18:10;;;;;;;7.90;4.57;;;11.40;99.90;;;;;;6131931;23;20165;-84
2021/10/25 00:20:36;;;;;;;11.57;6.47;;;11.50;99.90;;;;;;6131691;23;20255;-84
2021/10/25 00:23:03;;;;;;;10.77;5.23;;;11.50;99.90;;;;;;6130886;23;20142;-84
2021/10/25 00:25:29;;;;;;;8.40;5.70;;;11.50;99.90;;;;;;6131324;23;20155;-84
2021/10/25 00:27:55;;;;;;;8.30;4.17;;;11.40;99.90;;;;;;6131451;23;20606;-84
2021/10/25 00:30:22;;;;;;;11.40;6.60;;;11.50;99.90;;;;;;6131363;23;20150;-84
2021/10/25 00:32:48;;;;;;;8.20;4.67;;;11.60;99.90;;;;;;6131596;23;20254;-84
2021/10/25 00:35:13;;;;;;;13.87;7.93;;;11.60;99.90;;;;;;6132097;23;20571;-84
2021/10/25 00:37:39;;;;;;;8.10;5.37;;;11.60;99.90;;;;;;6131485;23;20176;-84
2021/10/25 00:40:06;;;;;;;9.70;6.13;;;11.70;99.90;;;;;;6131773;23;20181;-84
2021/10/25 00:42:32;;;;;;;7.67;5.27;;;11.60;99.90;;;;;;6131269;23;20149;-84
2021/10/25 00:44:59;;;;;;;6.77;4.30;;;11.70;99.90;;;;;;6131546;23;20224;-84
2021/10/25 00:47:24;;;;;;;7.97;4.87;;;11.50;99.90;;;;;;6131518;23;20185;-84
2021/10/25 00:49:50;;;;;;;10.20;5.07;;;11.40;99.90;;;;;;6131687;23;20579;-84
2021/10/25 00:52:18;;;;;;;9.90;5.13;;;11.70;99.90;;;;;;6131759;23;20160;-84
2021/10/25 00:54:44;;;;;;;9.00;5.40;;;11.70;99.90;;;;;;6131324;23;20587;-84
2021/10/25 00:57:10;;;;;;;10.83;5.23;;;11.80;99.90;;;;;;6131363;23;20590;-85
2021/10/25 00:59:36;;;;;;;14.00;7.43;;;11.60;99.90;;;;;;6131425;23;20145;-84
2021/10/25 01:02:02;;;;;;;13.60;7.50;;;11.60;99.90;;;;;;6131500;23;20153;-84
2021/10/25 01:04:28;;;;;;;12.40;6.33;;;11.50;99.90;;;;;;6131410;23;20567;-84
2021/10/25 01:06:55;;;;;;;11.50;5.70;;;11.50;99.90;;;;;;6131261;23;20232;-84
2021/10/25 01:09:21;;;;;;;13.60;6.90;;;11.60;99.90;;;;;;6131182;23;20152;-84
2021/10/25 01:11:48;;;;;;;11.10;5.60;;;11.70;99.90;;;;;;6131526;23;20165;-85
2021/10/25 01:14:15;;;;;;;12.73;6.83;;;11.80;99.90;;;;;;6131242;23;20231;-84
2021/10/25 01:16:41;;;;;;;13.57;5.97;;;11.70;99.90;;;;;;6131956;23;20200;-85
2021/10/25 01:19:07;;;;;;;14.53;8.50;;;11.80;99.90;;;;;;6131140;23;20529;-84
2021/10/25 01:21:33;;;;;;;9.77;5.40;;;11.80;99.90;;;;;;6130670;23;20712;-84
2021/10/25 01:23:59;;;;;;;12.07;5.60;;;11.80;99.90;;;;;;6131064;23;20172;-84
2021/10/25 01:26:25;;;;;;;12.63;5.57;;;11.70;99.90;;;;;;6131602;23;20236;-84
2021/10/25 01:28:53;;;;;;;8.47;5.03;;;11.70;99.90;;;;;;6131224;23;20146;-85
2021/10/25 01:31:20;;;;;;;9.63;5.37;;;11.60;99.90;;;;;;6131292;23;20158;-85
2021/10/25 01:33:47;;;;;;;9.37;5.20;;;11.50;99.90;;;;;;6131623;23;20149;-85
2021/10/25 01:36:13;;;;;;;10.27;4.63;;;11.50;99.90;;;;;;6131052;23;20153;-85
2021/10/25 01:38:38;;;;;;;8.20;4.57;;;11.60;99.90;;;;;;6130993;23;20149;-85
2021/10/25 01:41:04;;;;;;;9.83;4.90;;;11.80;99.90;;;;;;6130959;23;20185;-84
2021/10/25 01:43:30;;;;;;;9.27;4.43;;;11.90;99.90;;;;;;6131122;23;20145;-85
2021/10/25 01:45:56;;;;;;;9.73;4.90;;;11.70;99.90;;;;;;6131129;23;20590;-85
2021/10/25 01:48:22;;;;;;;10.37;5.10;;;11.70;99.90;;;;;;6130725;23;20145;-85
2021/10/25 01:50:48;;;;;;;8.23;4.20;;;11.80;99.90;;;;;;6131065;23;20220;-85
2021/10/25 01:53:15;;;;;;;6.27;4.17;;;11.80;99.90;;;;;;6130976;23;20152;-85
2021/10/25 01:55:41;;;;;;;8.13;4.37;;;11.70;99.90;;;;;;6130956;23;20576;-84
2021/10/25 01:58:06;;;;;;;7.50;3.80;;;11.60;99.90;;;;;;6130481;23;20232;-84
2021/10/25 02:00:33;;;;;;;9.00;3.93;;;11.70;99.90;;;;;;6130618;23;20514;-85
2021/10/25 02:02:59;;;;;;;6.63;3.97;;;11.70;99.90;;;;;;6130866;23;20149;-84
2021/10/25 02:05:25;;;;;;;9.37;4.30;;;11.80;99.90;;;;;;6130452;23;20242;-84
2021/10/25 02:07:51;;;;;;;7.33;3.93;;;11.80;99.90;;;;;;6130931;23;20149;-84
2021/10/25 02:10:18;;;;;;;5.80;4.20;;;11.60;99.90;;;;;;6130585;23;20178;-85
2021/10/25 02:12:44;;;;;;;8.73;4.17;;;11.90;99.90;;;;;;6131293;23;20277;-84
2021/10/25 02:15:09;;;;;;;5.20;3.67;;;11.90;99.90;;;;;;6131396;23;20145;-85
2021/10/25 02:17:36;;;;;;;6.50;3.90;;;11.80;99.90;;;;;;6131671;23;20176;-86
2021/10/25 02:20:03;;;;;;;7.80;3.83;;;11.80;99.90;;;;;;6130504;23;20208;-85
2021/10/25 02:22:29;;;;;;;7.93;3.93;;;12.00;99.90;;;;;;6130337;23;20176;-84
2021/10/25 02:24:56;;;;;;;5.87;3.27;;;12.00;99.90;;;;;;6130291;23;20158;-85
2021/10/25 02:27:22;;;;;;;5.23;3.13;;;12.10;99.90;;;;;;6130736;23;20153;-85
2021/10/25 02:29:48;;;;;;;8.53;3.60;;;12.20;99.90;;;;;;6130395;23;20145;-84
2021/10/25 02:32:16;;;;;;;7.63;3.40;;;12.30;99.90;;;;;;6131006;23;20212;-84
2021/10/25 02:34:46;;;;;;;7.37;3.20;;;12.30;99.90;;;;;;6130013;23;20145;-84
2021/10/25 02:37:13;;;;;;;7.10;3.40;;;12.30;99.90;;;;;;6130629;23;20146;-84
2021/10/25 02:39:39;;;;;;;6.80;3.80;;;12.30;99.90;;;;;;6130428;23;20145;-84
2021/10/25 02:42:05;;;;;;;8.17;3.53;;;12.30;99.90;;;;;;6130657;23;20164;-84
2021/10/25 02:44:30;;;;;;;8.73;3.40;;;12.40;99.90;;;;;;6130251;23;20173;-84
2021/10/25 02:46:57;;;;;;;6.40;3.47;;;12.30;99.90;;;;;;6130478;23;20154;-84
2021/10/25 02:49:23;;;;;;;7.00;3.37;;;12.20;99.90;;;;;;6130187;23;20153;-84
2021/10/25 02:51:49;;;;;;;5.70;3.23;;;12.20;99.90;;;;;;6130635;23;20181;-84
2021/10/25 02:54:15;;;;;;;5.57;3.23;;;12.00;99.90;;;;;;6130810;23;20153;-84
2021/10/25 02:56:41;;;;;;;4.30;3.40;;;12.00;99.90;;;;;;6130289;23;20203;-84
2021/10/25 02:59:09;;;;;;;8.47;3.87;;;12.00;99.90;;;;;;6156288;23;20216;-85
2021/10/25 03:01:37;;;;;;;7.13;3.40;;;12.10;99.90;;;;;;6156030;23;20181;-84
2021/10/25 03:04:05;;;;;;;4.13;3.17;;;12.00;99.90;;;;;;6130254;23;20159;-84
2021/10/25 03:06:31;;;;;;;7.20;3.30;;;12.10;99.90;;;;;;6130027;23;20163;-84
2021/10/25 03:08:58;;;;;;;5.50;3.30;;;12.10;99.90;;;;;;6130564;23;20154;-84
2021/10/25 03:11:24;;;;;;;4.57;3.23;;;12.30;99.90;;;;;;6130881;23;20149;-84
2021/10/25 03:13:49;;;;;;;6.57;3.50;;;12.20;99.90;;;;;;6130070;23;20308;-84
2021/10/25 03:16:15;;;;;;;6.20;3.50;;;12.10;99.90;;;;;;6130513;23;20145;-84
2021/10/25 03:18:41;;;;;;;7.57;3.43;;;12.30;99.90;;;;;;6129867;23;20151;-84
2021/10/25 03:21:07;;;;;;;6.90;3.30;;;12.40;99.90;;;;;;6129830;23;20208;-85
2021/10/25 03:23:35;;;;;;;7.17;4.10;;;12.30;99.90;;;;;;6130065;23;20579;-85
2021/10/25 03:26:02;;;;;;;7.47;3.40;;;12.20;99.90;;;;;;6130198;23;20153;-85
2021/10/25 03:28:28;;;;;;;9.23;3.90;;;12.20;99.90;;;;;;6130416;23;20638;-85
2021/10/25 03:30:53;;;;;;;7.17;3.17;;;12.20;99.90;;;;;;6130078;23;20185;-85
2021/10/25 03:33:20;;;;;;;6.87;3.57;;;12.20;99.90;;;;;;6129861;23;20224;-85
2021/10/25 03:35:45;;;;;;;6.57;3.30;;;12.20;99.90;;;;;;6130611;23;20205;-86
2021/10/25 03:38:13;;;;;;;6.30;3.67;;;12.30;99.90;;;;;;6130428;23;20221;-85
2021/10/25 03:40:41;;;;;;;4.73;3.20;;;12.30;99.90;;;;;;6130415;23;20275;-85
2021/10/25 03:43:08;;;;;;;7.80;3.87;;;12.30;99.90;;;;;;6132057;23;20200;-86
2021/10/25 03:45:47;;;;;;;8.30;3.50;;;12.10;99.90;;;;;;6132250;23;20149;-85
2021/10/25 03:50:51;;;;;;;6.60;3.10;;;12.40;99.90;;;;;;6166156;23;20223;-85
2021/10/25 03:53:38;;;;;;;7.93;3.53;;;12.30;99.90;;;;;;6158106;23;20219;-86
2021/10/25 04:01:20;;;;;;;5.57;2.67;;;12.30;99.90;;;;;;6157709;23;20205;-85
2021/10/25 04:28:12;;;;;;;6.63;3.50;;;12.20;99.90;;;;;;6192049;23;20177;-86
2021/10/25 04:30:38;;;;;;;6.43;3.90;;;12.10;99.90;;;;;;6156850;23;20187;-85
2021/10/25 04:33:05;;;;;;;8.97;3.47;;;12.10;99.90;;;;;;6158571;23;20145;-86
2021/10/25 04:35:31;;;;;;;6.97;3.60;;;12.10;99.90;;;;;;6159420;23;20153;-84
2021/10/25 04:37:58;;;;;;;7.27;3.27;;;12.10;99.90;;;;;;6178938;23;20141;-85
2021/10/25 04:40:25;;;;;;;5.10;3.33;;;12.30;99.90;;;;;;6173260;23;20225;-84
2021/10/25 04:42:51;;;;;;;4.83;3.37;;;12.30;99.90;;;;;;6148849;23;20153;-84
2021/10/25 04:45:18;;;;;;;8.60;3.50;;;12.30;99.90;;;;;;6148398;23;20142;-84
2021/10/25 04:47:45;;;;;;;6.13;2.77;;;12.30;99.90;;;;;;6150734;23;20133;-85
2021/10/25 04:50:11;;;;;;;7.73;3.13;;;12.20;99.90;;;;;;6132792;23;20149;-85
2021/10/25 04:52:36;;;;;;;7.20;3.00;;;12.40;99.90;;;;;;6132134;23;20185;-84
2021/10/25 04:55:03;;;;;;;4.87;3.07;;;12.50;99.90;;;;;;6132082;23;20154;-85
2021/10/25 04:57:29;;;;;;;5.03;2.83;;;12.40;99.90;;;;;;6131877;23;20168;-84
2021/10/25 04:59:54;;;;;;;7.73;3.80;;;12.30;99.90;;;;;;6130986;23;20642;-84
2021/10/25 05:02:21;;;;;;;3.57;2.80;;;12.30;99.90;;;;;;6131873;23;20192;-85
2021/10/25 05:04:47;;;;;;;6.27;3.37;;;12.20;99.90;;;;;;6131656;23;20144;-85
2021/10/25 05:07:12;;;;;;;6.17;3.30;;;12.40;99.90;;;;;;6131797;23;20157;-86
2021/10/25 05:09:38;;;;;;;7.43;2.97;;;12.40;99.90;;;;;;6131451;23;20485;-85
2021/10/25 05:12:04;;;;;;;7.50;3.43;;;12.40;99.90;;;;;;6131157;23;20567;-85
2021/10/25 05:14:30;;;;;;;6.80;3.40;;;12.40;99.90;;;;;;6131135;23;20173;-85
2021/10/25 05:16:56;;;;;;;5.37;3.73;;;12.40;99.90;;;;;;6131246;23;20535;-84
2021/10/25 05:19:22;;;;;;;7.87;3.30;;;12.30;99.90;;;;;;6131083;23;20149;-84
2021/10/25 05:21:47;;;;;;;5.47;3.30;;;12.30;99.90;;;;;;6131047;23;20219;-85
2021/10/25 05:24:13;;;;;;;6.13;3.07;;;12.30;99.90;;;;;;6131196;23;20597;-84
2021/10/25 05:26:39;;;;;;;5.60;3.20;;;12.20;99.90;;;;;;6131315;23;20149;-84
2021/10/25 05:29:04;;;;;;;5.70;2.80;;;12.20;99.90;;;;;;6130943;23;20564;-84
2021/10/25 05:31:30;;;;;;;5.33;3.20;;;12.10;99.90;;;;;;6130405;23;20146;-85
2021/10/25 05:33:57;;;;;;;5.50;3.00;;;12.20;99.90;;;;;;6131414;23;20160;-85
2021/10/25 05:36:23;;;;;;;7.17;3.33;;;12.30;99.90;;;;;;6131241;23;20159;-85
2021/10/25 05:38:48;;;;;;;7.60;3.30;;;12.30;99.90;;;;;;6130394;23;20153;-85
2021/10/25 05:41:14;;;;;;;8.07;3.20;;;12.30;99.90;;;;;;6131478;23;20185;-85
2021/10/25 05:43:41;;;;;;;6.20;3.47;;;12.30;99.90;;;;;;6130801;23;20193;-82
2021/10/25 05:46:07;;;;;;;7.90;3.13;;;12.20;99.90;;;;;;6130979;23;20150;-83
2021/10/25 05:48:33;;;;;;;7.20;3.20;;;12.30;99.90;;;;;;6131122;23;20145;-85
2021/10/25 05:51:02;;;;;;;6.40;3.93;;;12.40;99.90;;;;;;6131130;23;20172;-83
2021/10/25 05:53:28;;;;;;;8.67;4.40;;;12.50;99.90;;;;;;6131144;23;20190;-85
2021/10/25 05:55:54;;;;;;;4.80;3.17;;;12.40;99.90;;;;;;6131542;23;20597;-86
2021/10/25 05:58:23;;;;;;;6.47;2.90;;;12.50;99.90;;;;;;6131645;23;20153;-85
2021/10/25 06:00:58;;;;;;;8.07;3.27;;;12.40;99.90;;;;;;6131519;23;20693;-85
2021/10/25 06:03:26;;;;;;;7.87;3.30;;;12.30;99.90;;;;;;6130953;23;20634;-85
2021/10/25 06:05:52;;;;;;;6.10;4.23;;;12.30;99.90;;;;;;6130441;23;20172;-85
2021/10/25 06:08:18;;;;;;;4.30;2.77;;;12.40;99.90;;;;;;6130588;23;20145;-85
2021/10/25 06:10:44;;;;;;;7.30;3.40;;;12.50;99.90;;;;;;6130926;23;20149;-86
2021/10/25 06:13:17;;;;;;;5.00;2.93;;;12.40;99.90;;;;;;6130332;23;20626;-85
2021/10/25 06:15:43;;;;;;;7.97;3.20;;;12.50;99.90;;;;;;6130656;23;20181;-84
2021/10/25 06:18:10;;;;;;;7.90;3.43;;;12.60;99.90;;;;;;6130777;23;20146;-83
2021/10/25 06:20:38;;;;;;;4.93;2.93;;;12.50;99.90;;;;;;6124688;23;20254;-86
2021/10/25 06:23:15;;;;;;;5.37;3.40;;;12.50;99.90;;;;;;6128237;23;20212;-85
2021/10/25 06:25:41;;;;;;;6.17;3.60;;;12.40;99.90;;;;;;6130693;23;20559;-83
2021/10/25 06:28:09;;;;;;;10.30;3.30;;;12.50;99.90;;;;;;6130286;23;20486;-85
2021/10/25 06:30:36;;;;;;;6.03;3.50;;;12.50;99.90;;;;;;6129806;23;20157;-82
2021/10/25 06:33:04;;;;;;;7.57;3.67;;;12.40;99.90;;;;;;6130264;23;20671;-86
2021/10/25 06:35:31;;;;;;;6.13;2.93;;;12.50;99.90;;;;;;6129960;23;20146;-83
2021/10/25 06:40:24;;;;;;;7.80;3.57;;;12.50;99.90;;;;;;6166300;23;20192;-86
2021/10/25 06:42:51;;;;;;;8.63;3.60;;;12.50;99.90;;;;;;6129999;23;20159;-82
2021/10/25 06:45:20;;;;;;;11.87;4.20;;;12.40;99.90;;;;;;6156105;23;20130;-84
2021/10/25 06:47:47;;;;;;;5.33;3.97;;;12.30;99.90;;;;;;6130454;23;20153;-83
2021/10/25 06:50:15;;;;;;;7.90;3.60;;;12.30;99.90;;;;;;6130278;23;20153;-86
2021/10/25 06:52:42;;;;;;;5.27;3.70;;;12.30;99.90;;;;;;6130427;23;20164;-84
2021/10/25 06:55:08;;;;;;;6.33;3.40;;;12.40;99.90;;;;;;6129568;23;20173;-86
2021/10/25 06:57:34;;;;;;;10.50;3.90;;;12.40;99.90;;;;;;6130476;23;20237;-86
2021/10/25 07:00:02;;;;;;;6.43;3.87;;;12.50;99.90;;;;;;6129973;23;20243;-87
2021/10/25 07:02:28;;;;;;;7.33;3.87;;;12.50;99.90;;;;;;6130185;23;20493;-87
2021/10/25 07:04:54;;;;;;;8.80;4.60;;;12.50;99.90;;;;;;6130280;23;20153;-83
2021/10/25 07:07:24;;;;;;;5.97;3.50;;;12.50;99.90;;;;;;6129902;23;20153;-82
2021/10/25 07:09:49;;;;;;;6.90;3.73;;;12.50;99.90;;;;;;6129595;23;20168;-86
2021/10/25 07:12:15;;;;;;;5.37;3.40;;;12.40;99.90;;;;;;6129880;23;20149;-85
2021/10/25 07:14:42;;;;;;;10.77;3.67;;;12.50;99.90;;;;;;6130468;23;20205;-85
2021/10/25 08:06:24;;;;;;;10.47;5.00;;;13.20;99.90;;;;;;6038521;23;20626;-87
2021/10/25 08:11:18;;;;;;;9.87;4.67;;;13.10;99.90;;;;;;6165808;23;20510;-85
2021/10/25 08:13:46;;;;;;;10.57;4.23;;;13.10;99.90;;;;;;6130007;23;20173;-85
2021/10/25 08:21:13;;;;;;;6.17;3.80;;;12.90;99.90;;;;;;6162470;23;20201;-87
2021/10/25 08:23:40;;;;;;;9.60;3.90;;;13.00;99.90;;;;;;6129739;23;20157;-86
2021/10/25 08:26:08;;;;;;;8.53;3.60;;;12.90;99.90;;;;;;6130452;23;20202;-83
2021/10/25 08:28:34;;;;;;;9.70;4.13;;;12.90;99.90;;;;;;6131025;23;20529;-84
2021/10/25 08:31:00;;;;;;;9.13;4.20;;;12.90;99.90;;;;;;6132033;23;20181;-84
2021/10/25 08:41:05;;;;;;;7.47;3.63;;;13.20;99.90;;;;;;6157853;23;20525;-85
2021/10/25 08:43:33;;;;;;;7.00;3.50;;;13.30;99.90;;;;;;6131985;23;20145;-84
2021/10/25 08:46:03;;;;;;;7.50;3.30;;;13.30;99.90;;;;;;6131768;23;20149;-84
2021/10/25 08:48:30;;;;;;;6.80;3.90;;;13.30;99.90;;;;;;6131458;23;20146;-84
2021/10/25 08:50:59;;;;;;;4.50;3.30;;;13.40;99.90;;;;;;6131746;23;20598;-85
2021/10/25 08:53:24;;;;;;;8.80;3.67;;;13.40;99.90;;;;;;6157460;23;20254;-84
2021/10/25 08:55:53;;;;;;;6.97;3.60;;;13.40;99.90;;;;;;6131725;23;20150;-85
2021/10/25 08:58:19;;;;;;;7.43;3.53;;;13.40;99.90;;;;;;6131518;23;20149;-85
2021/10/25 09:00:50;;;;;;;6.67;3.77;;;13.50;99.90;;;;;;6131791;23;20659;-85
2021/10/25 09:03:18;;;;;;;9.50;3.70;;;13.50;99.90;;;;;;6131529;23;20487;-85
2021/10/25 09:06:01;;;;;;;10.50;4.17;;;13.40;99.90;;;;;;6131342;23;20176;-84
2021/10/25 09:08:28;;;;;;;6.90;3.70;;;13.30;99.90;;;;;;6131461;23;20189;-85
2021/10/25 09:10:54;;;;;;;8.03;3.70;;;13.30;99.90;;;;;;6131482;23;20149;-84
2021/10/25 09:13:26;;;;;;;10.13;4.37;;;13.40;99.90;;;;;;6130799;23;20541;-85
2021/10/25 09:15:54;;;;;;;9.37;4.23;;;13.40;99.90;;;;;;6131496;23;20212;-86
2021/10/25 09:18:22;;;;;;;7.63;4.07;;;13.40;99.90;;;;;;6157383;23;20225;-85
2021/10/25 09:20:53;;;;;;;9.23;4.50;;;13.30;99.90;;;;;;6131014;23;20201;-86
2021/10/25 09:23:28;;;;;;;8.60;4.87;;;13.20;99.90;;;;;;6131302;23;20182;-86
2021/10/25 09:25:58;;;;;;;9.37;4.70;;;13.10;99.90;;;;;;6131704;23;20145;-86
2021/10/25 09:28:29;;;;;;;10.17;4.67;;;13.20;99.90;;;;;;6131246;23;20229;-86
2021/10/25 09:30:59;;;;;;;7.97;4.97;;;13.30;99.90;;;;;;6131197;23;20150;-86
2021/10/25 09:33:33;;;;;;;12.70;4.33;;;13.20;99.90;;;;;;6130641;23;20164;-85
2021/10/25 09:36:03;;;;;;;8.10;4.50;;;13.30;99.90;;;;;;6130688;23;20158;-85
2021/10/25 09:49:14;;;;;;;7.20;4.73;;;13.80;99.90;;;;;;6166305;23;20228;-85
2021/10/25 09:51:51;;;;;;;7.67;4.40;;;14.00;99.90;;;;;;6130355;23;20588;-86
2021/10/25 09:54:32;;;;;;;10.00;5.23;;;14.20;99.90;;;;;;6130421;23;20203;-85
2021/10/25 09:57:23;;;;;;;11.00;4.70;;;14.20;99.90;;;;;;6130261;23;20635;-84
2021/10/25 09:59:52;;;;;;;6.57;4.17;;;14.20;99.90;;;;;;6130196;23;20165;-82
2021/10/25 10:02:21;;;;;;;8.53;4.57;;;14.10;99.90;;;;;;6130387;23;20196;-85
2021/10/25 10:04:50;;;;;;;10.63;5.07;;;14.00;99.90;;;;;;6130606;23;20176;-85
2021/10/25 10:07:16;;;;;;;7.83;5.00;;;13.90;99.90;;;;;;6130417;23;20152;-85
2021/10/25 10:09:45;;;;;;;10.00;5.37;;;13.90;99.90;;;;;;6130306;23;20150;-85
2021/10/25 10:12:18;;;;;;;9.97;4.50;;;13.90;99.90;;;;;;6156141;23;20142;-82
2021/10/25 10:14:46;;;;;;;9.57;4.80;;;14.00;99.90;;;;;;6130487;23;20150;-81
2021/10/25 10:17:16;;;;;;;10.20;5.37;;;14.00;99.90;;;;;;6156328;23;20145;-81
2021/10/25 10:19:42;;;;;;;11.43;5.23;;;13.90;99.90;;;;;;6130086;23;20154;-81
2021/10/25 10:22:09;;;;;;;7.10;5.07;;;13.80;99.90;;;;;;6155953;23;20220;-81
2021/10/25 10:24:35;;;;;;;9.73;5.17;;;13.80;99.90;;;;;;6130328;23;20173;-81
2021/10/25 10:27:05;;;;;;;7.77;5.00;;;13.70;99.90;;;;;;6130426;23;20146;-81
2021/10/25 10:29:40;;;;;;;9.20;5.07;;;13.80;99.90;;;;;;6156174;23;20469;-81
2021/10/25 10:32:12;;;;;;;10.30;4.43;;;13.90;99.90;;;;;;6130076;23;20158;-81
2021/10/25 10:34:44;;;;;;;8.63;4.63;;;14.00;99.90;;;;;;6129700;23;20174;-81
2021/10/25 10:37:24;;;;;;;9.23;4.23;;;14.10;99.90;;;;;;6130336;23;20147;-81
2021/10/25 10:40:04;;;;;;;7.93;4.03;;;14.20;99.90;;;;;;6129784;23;20146;-81
2021/10/25 10:42:31;;;;;;;7.67;4.60;;;14.20;99.90;;;;;;6130193;23;20206;-81
2021/10/25 10:45:00;;;;;;;6.00;4.10;;;14.40;99.90;;;;;;6129764;23;20493;-84
2021/10/25 10:47:26;;;;;;;6.67;4.17;;;14.50;99.90;;;;;;6129579;23;20490;-85
2021/10/25 10:49:56;;;;;;;6.70;4.23;;;14.80;99.90;;;;;;6129783;23;20160;-85
2021/10/25 10:52:32;;;;;;;6.53;4.47;;;14.80;99.90;;;;;;6156143;23;20156;-86
2021/10/25 10:55:22;;;;;;;6.23;3.77;;;14.70;99.90;;;;;;6129745;23;20196;-82
2021/10/25 11:00:26;;;;;;;8.07;4.10;;;14.90;99.90;;;;;;6165906;23;20179;-85
2021/10/25 11:03:05;;;;;;;6.63;4.33;;;15.00;99.90;;;;;;6155668;23;20141;-85
2021/10/25 11:05:35;;;;;;;8.67;4.23;;;15.00;99.90;;;;;;6129785;23;20188;-85
2021/10/25 11:08:22;;;;;;;8.13;4.83;;;14.90;99.90;;;;;;6129687;23;20156;-85
2021/10/25 11:10:59;;;;;;;10.50;4.20;;;14.90;99.90;;;;;;6141899;23;20215;-85
2021/10/25 11:13:26;;;;;;;7.87;4.40;;;14.90;99.90;;;;;;6154523;23;20197;-86
2021/10/25 11:16:10;;;;;;;7.60;4.30;;;15.00;99.90;;;;;;6185584;23;20131;-85
2021/10/25 11:18:39;;;;;;;8.33;4.30;;;15.10;99.90;;;;;;6159138;23;20162;-85
2021/10/25 11:21:20;;;;;;;8.40;5.27;;;15.10;99.90;;;;;;6185081;23;20568;-85
2021/10/25 11:23:54;;;;;;;7.73;4.40;;;15.20;99.90;;;;;;6159166;23;20209;-85
2021/10/25 11:26:24;;;;;;;6.43;4.80;;;15.10;99.90;;;;;;6158952;23;20152;-82
2021/10/25 11:28:59;;;;;;;10.07;4.70;;;15.10;99.90;;;;;;6159531;23;20140;-81
2021/10/25 11:31:26;;;;;;;7.07;4.43;;;14.90;99.90;;;;;;6158735;23;20641;-81
2021/10/25 11:33:52;;;;;;;9.10;4.40;;;14.80;99.90;;;;;;6159684;23;20151;-81
2021/10/25 11:36:25;;;;;;;8.23;4.60;;;14.80;99.90;;;;;;6185200;23;20162;-81
2021/10/25 11:38:51;;;;;;;9.30;4.83;;;15.00;99.90;;;;;;6159269;23;20575;-82
2021/10/25 11:41:17;;;;;;;12.23;5.23;;;15.10;99.90;;;;;;6158898;23;20210;-81
2021/10/25 11:43:42;;;;;;;9.97;5.10;;;15.30;99.90;;;;;;6159217;23;20578;-81
2021/10/25 11:46:22;;;;;;;9.23;5.27;;;15.30;99.90;;;;;;6158980;23;20181;-81
2021/10/25 11:48:57;;;;;;;9.23;5.60;;;15.50;99.90;;;;;;6159345;23;20155;-80
2021/10/25 11:51:24;;;;;;;12.97;6.40;;;15.60;99.90;;;;;;6159308;23;20796;-81
2021/10/25 11:53:56;;;;;;;9.07;5.87;;;16.00;99.90;;;;;;6159413;23;20242;-82
2021/10/25 11:56:23;;;;;;;13.30;6.10;;;17.30;99.90;;;;;;6159164;23;20156;-82
2021/10/25 11:58:49;;;;;;;31.43;17.37;;;19.00;99.90;;;;;;6185489;23;20144;-82
2021/10/25 12:01:15;;;;;;;9.80;6.20;;;19.70;99.90;;;;;;6184416;23;20198;-85
2021/10/25 12:03:41;;;;;;;16.03;7.13;;;19.90;99.90;;;;;;6159834;23;20149;-84
2021/10/25 12:06:19;;;;;;;11.03;5.83;;;19.50;99.90;;;;;;6160526;23;20610;-86
2021/10/25 12:09:01;;;;;;;12.27;8.23;;;19.00;99.90;;;;;;6160655;23;20144;-86
2021/10/25 12:14:17;;;;;;;16.33;8.93;;;18.00;99.90;;;;;;6187944;23;20235;-86
2021/10/25 12:16:48;;;;;;;13.93;6.93;;;17.50;99.90;;;;;;6161347;23;20234;-86
2021/10/25 12:19:14;;;;;;;201.97;69.13;;;17.30;99.90;;;;;;6161643;23;20198;-86
2021/10/25 12:21:39;;;;;;;53.33;22.13;;;17.30;99.90;;;;;;6161131;23;20204;-86
2021/10/25 12:24:10;;;;;;;17.40;9.63;;;17.20;99.90;;;;;;6161170;23;20157;-86
2021/10/25 12:26:38;;;;;;;9.40;4.87;;;17.10;99.90;;;;;;6161600;23;20159;-86
2021/10/25 12:29:18;;;;;;;9.73;4.57;;;17.10;99.90;;;;;;6161182;23;20156;-87
2021/10/25 12:31:46;;;;;;;7.03;4.53;;;17.90;99.90;;;;;;6187430;23;20535;-86
2021/10/25 12:34:12;;;;;;;11.23;3.93;;;18.50;99.90;;;;;;6161218;23;20145;-86
2021/10/25 12:36:41;;;;;;;10.80;4.00;;;18.40;99.90;;;;;;6161275;23;20145;-86
2021/10/25 12:39:11;;;;;;;5.87;3.50;;;18.20;99.90;;;;;;6187696;23;20136;-86
2021/10/25 12:41:48;;;;;;;9.10;4.80;;;18.00;99.90;;;;;;6187279;23;20176;-85
2021/10/25 12:44:31;;;;;;;8.40;5.07;;;18.20;99.90;;;;;;6187190;23;20191;-81
2021/10/25 12:47:11;;;;;;;9.17;5.30;;;18.30;99.90;;;;;;6161485;23;20532;-81
2021/10/25 12:49:37;;;;;;;11.40;6.00;;;18.50;99.90;;;;;;6161426;23;20158;-85
2021/10/25 12:52:10;;;;;;;9.43;5.77;;;18.40;99.90;;;;;;6160900;23;20251;-81
2021/10/25 12:54:38;;;;;;;11.23;6.73;;;18.10;99.90;;;;;;6161255;23;20235;-81
2021/10/25 12:57:26;;;;;;;15.80;7.23;;;17.90;99.90;;;;;;6186998;23;20133;-84
2021/10/25 13:00:09;;;;;;;12.37;7.60;;;17.90;99.90;;;;;;6160632;23;20187;-81
2021/10/25 13:02:54;;;;;;;14.77;8.40;;;17.80;99.90;;;;;;6187404;23;20240;-82
2021/10/25 13:05:21;;;;;;;14.47;8.77;;;17.00;99.90;;;;;;6160794;23;20153;-82
2021/10/25 13:07:51;;;;;;;18.23;9.47;;;16.90;99.90;;;;;;6160969;23;20152;-82
2021/10/25 13:10:29;;;;;;;18.87;9.63;;;17.00;99.90;;;;;;6187196;23;20214;-82
2021/10/25 13:12:57;;;;;;;14.67;8.70;;;17.10;99.90;;;;;;6160571;23;20167;-85
2021/10/25 13:15:23;;;;;;;18.07;9.97;;;17.60;99.90;;;;;;6186836;23;20144;-86
2021/10/25 13:17:53;;;;;;;37.10;18.83;;;17.70;99.90;;;;;;6161372;23;20145;-86
2021/10/25 13:20:22;;;;;;;26.20;13.63;;;17.80;99.90;;;;;;6161380;23;20740;-84
2021/10/25 13:22:53;;;;;;;21.30;12.67;;;18.20;99.90;;;;;;6187682;23;20160;-86
2021/10/25 13:25:20;;;;;;;18.83;10.03;;;18.30;99.90;;;;;;6187095;23;20144;-86
2021/10/25 13:27:48;;;;;;;16.47;9.07;;;18.10;99.90;;;;;;6160516;23;20151;-86
2021/10/25 13:30:14;;;;;;;18.73;10.53;;;17.20;99.90;;;;;;6160469;23;20158;-85
2021/10/25 13:32:40;;;;;;;18.70;9.40;;;16.80;99.90;;;;;;6159813;23;20155;-81
2021/10/25 13:35:07;;;;;;;17.50;9.90;;;16.80;99.90;;;;;;6159986;23;20151;-82
2021/10/25 13:37:33;;;;;;;18.97;9.83;;;16.90;99.90;;;;;;6159786;23;20195;-81
2021/10/25 13:39:59;;;;;;;22.90;13.83;;;16.80;99.90;;;;;;6159660;23;20149;-81
2021/10/25 13:42:25;;;;;;;18.87;11.07;;;16.70;99.90;;;;;;6159475;23;20151;-81
2021/10/25 13:44:51;;;;;;;17.03;10.17;;;16.60;99.90;;;;;;6159888;23;20229;-81
2021/10/25 13:47:17;;;;;;;22.53;11.03;;;16.60;99.90;;;;;;6159915;23;20183;-82
2021/10/25 13:49:43;;;;;;;20.23;15.13;;;16.60;99.90;;;;;;6186025;23;20212;-82
2021/10/25 13:52:09;;;;;;;15.63;9.43;;;16.80;99.90;;;;;;6186772;23;20182;-82
2021/10/25 13:54:34;;;;;;;15.90;9.00;;;17.00;99.90;;;;;;6160075;23;20495;-82
2021/10/25 13:57:06;;;;;;;13.83;9.13;;;17.00;99.90;;;;;;6159534;23;20145;-82
2021/10/25 13:59:32;;;;;;;13.27;8.07;;;17.10;99.90;;;;;;6159511;23;20180;-81
2021/10/25 14:01:58;;;;;;;15.57;8.17;;;17.00;99.90;;;;;;6159414;23;20617;-81
2021/10/25 14:04:23;;;;;;;12.63;7.77;;;17.00;99.90;;;;;;6159670;23;20227;-81
2021/10/25 14:06:49;;;;;;;12.10;7.07;;;16.90;99.90;;;;;;6159600;23;20155;-82
2021/10/25 14:09:15;;;;;;;10.23;6.97;;;16.80;99.90;;;;;;6159284;23;20231;-82
2021/10/25 14:11:46;;;;;;;14.30;7.07;;;16.60;99.90;;;;;;6159445;23;20223;-81
2021/10/25 14:16:49;;;;;;;9.40;6.47;;;16.60;99.90;;;;;;6196226;23;20225;-83
2021/10/25 14:19:14;;;;;;;15.23;9.43;;;16.60;99.90;;;;;;6159593;23;20493;-83
2021/10/25 14:21:40;;;;;;;13.47;8.23;;;16.60;99.90;;;;;;6159553;23;20199;-82
2021/10/25 14:24:08;;;;;;;12.87;7.57;;;16.70;99.90;;;;;;6159585;23;20609;-81
2021/10/25 14:26:34;;;;;;;13.87;8.40;;;16.70;99.90;;;;;;6158840;23;20154;-82
2021/10/25 14:29:00;;;;;;;12.70;7.50;;;16.50;99.90;;;;;;6185658;23;20161;-82
2021/10/25 14:31:27;;;;;;;10.10;6.17;;;16.20;99.90;;;;;;6159587;23;20199;-82
2021/10/25 14:33:54;;;;;;;10.93;7.00;;;16.10;99.90;;;;;;6159708;23;20150;-81
2021/10/25 14:36:22;;;;;;;10.13;6.63;;;16.00;99.90;;;;;;6186264;23;20202;-81
2021/10/25 14:41:27;;;;;;;12.57;8.03;;;15.90;99.90;;;;;;6196007;23;20216;-81
2021/10/25 14:43:57;;;;;;;12.87;6.50;;;15.80;99.90;;;;;;6187099;23;20140;-81
2021/10/25 14:57:13;;;;;;;14.07;7.73;;;15.40;99.90;;;;;;6216779;23;20145;-85
2021/10/25 14:59:41;;;;;;;13.90;8.93;;;15.50;99.90;;;;;;6175271;23;20234;-82